sensor_id;sensor_type;location;lat;lon;timestamp;temperature;humidity
7331;DHT22;3706;49.198;7.064;2023-07-13T00:00:36;14.80;99.90
7331;DHT22;3706;49.198;7.064;2023-07-13T00:03:03;14.50;99.90
7331;DHT22;3706;49.198;7.064;2023-07-13T00:05:31;14.30;99.90
7331;DHT22;3706;49.198;7.064;2023-07-13T00:07:58;14.00;99.90
7331;DHT22;3706;49.198;7.064;2023-07-13T00:10:25;13.80;99.90
7331;DHT22;3706;49.198;7.064;2023-07-13T00:12:52;13.80;99.90
7331;DHT22;3706;49.198;7.064;2023-07-13T00:15:23;13.60;99.90
7331;DHT22;3706;49.198;7.064;2023-07-13T00:17:51;13.70;99.90
7331;DHT22;3706;49.198;7.064;2023-07-13T00:20:20;13.70;99.90
7331;DHT22;3706;49.198;7.064;2023-07-13T00:22:49;13.70;99.90
7331;DHT22;3706;49.198;7.064;2023-07-13T00:25:18;13.60;99.90
7331;DHT22;3706;49.198;7.064;2023-07-13T00:27:46;13.40;99.90
7331;DHT22;3706;49.198;7.064;2023-07-13T00:30:14;13.30;99.90
7331;DHT22;3706;49.198;7.064;2023-07-13T00:32:41;13.10;99.90
7331;DHT22;3706;49.198;7.064;2023-07-13T00:35:08;13.10;99.90
7331;DHT22;3706;49.198;7.064;2023-07-13T00:37:35;12.90;99.90
7331;DHT22;3706;49.198;7.064;2023-07-13T00:40:06;12.90;99.90
7331;DHT22;3706;49.198;7.064;2023-07-13T00:42:33;13.10;99.90
7331;DHT22;3706;49.198;7.064;2023-07-13T00:45:02;13.20;99.90
7331;DHT22;3706;49.198;7.064;2023-07-13T00:47:29;13.20;99.90
7331;DHT22;3706;49.198;7.064;2023-07-13T00:49:56;13.40;99.90
7331;DHT22;3706;49.198;7.064;2023-07-13T00:52:23;13.60;99.90
7331;DHT22;3706;49.198;7.064;2023-07-13T00:54:50;13.60;99.90
7331;DHT22;3706;49.198;7.064;2023-07-13T00:57:20;13.40;99.90
7331;DHT22;3706;49.198;7.064;2023-07-13T00:59:49;13.10;99.90
7331;DHT22;3706;49.198;7.064;2023-07-13T01:02:17;13.00;99.90
7331;DHT22;3706;49.198;7.064;2023-07-13T01:04:44;13.00;99.90
7331;DHT22;3706;49.198;7.064;2023-07-13T01:07:11;12.90;99.90
7331;DHT22;3706;49.198;7.064;2023-07-13T01:09:39;12.80;99.90
7331;DHT22;3706;49.198;7.064;2023-07-13T01:12:07;12.80;99.90
7331;DHT22;3706;49.198;7.064;2023-07-13T01:14:35;12.70;99.90
7331;DHT22;3706;49.198;7.064;2023-07-13T01:17:03;12.70;99.90
7331;DHT22;3706;49.198;7.064;2023-07-13T01:19:35;12.80;99.90
7331;DHT22;3706;49.198;7.064;2023-07-13T01:22:06;12.80;99.90
7331;DHT22;3706;49.198;7.064;2023-07-13T01:24:34;12.80;99.90
7331;DHT22;3706;49.198;7.064;2023-07-13T01:27:01;12.90;99.90
7331;DHT22;3706;49.198;7.064;2023-07-13T01:29:30;12.80;99.90
7331;DHT22;3706;49.198;7.064;2023-07-13T01:31:57;12.70;99.90
7331;DHT22;3706;49.198;7.064;2023-07-13T01:34:25;12.70;99.90
7331;DHT22;3706;49.198;7.064;2023-07-13T01:36:53;12.70;99.90
7331;DHT22;3706;49.198;7.064;2023-07-13T01:39:21;12.80;99.90
7331;DHT22;3706;49.198;7.064;2023-07-13T01:41:49;12.90;99.90
7331;DHT22;3706;49.198;7.064;2023-07-13T01:44:16;13.10;99.90
7331;DHT22;3706;49.198;7.064;2023-07-13T01:46:42;13.10;99.90
7331;DHT22;3706;49.198;7.064;2023-07-13T01:49:09;13.10;99.90
7331;DHT22;3706;49.198;7.064;2023-07-13T01:51:36;13.00;99.90
7331;DHT22;3706;49.198;7.064;2023-07-13T01:54:03;12.80;99.90
7331;DHT22;3706;49.198;7.064;2023-07-13T01:56:31;12.80;99.90
7331;DHT22;3706;49.198;7.064;2023-07-13T01:58:58;12.90;99.90
7331;DHT22;3706;49.198;7.064;2023-07-13T02:01:25;12.80;99.90
7331;DHT22;3706;49.198;7.064;2023-07-13T02:03:52;12.80;99.90
7331;DHT22;3706;49.198;7.064;2023-07-13T02:06:19;13.00;99.90
7331;DHT22;3706;49.198;7.064;2023-07-13T02:08:46;13.00;99.90
7331;DHT22;3706;49.198;7.064;2023-07-13T02:11:13;12.90;99.90
7331;DHT22;3706;49.198;7.064;2023-07-13T02:13:41;12.90;99.90
7331;DHT22;3706;49.198;7.064;2023-07-13T02:16:08;12.90;99.90
7331;DHT22;3706;49.198;7.064;2023-07-13T02:18:35;12.80;99.90
7331;DHT22;3706;49.198;7.064;2023-07-13T02:21:03;12.60;99.90
7331;DHT22;3706;49.198;7.064;2023-07-13T02:23:30;12.50;99.90
7331;DHT22;3706;49.198;7.064;2023-07-13T02:25:57;12.50;99.90
7331;DHT22;3706;49.198;7.064;2023-07-13T02:28:24;12.40;99.90
7331;DHT22;3706;49.198;7.064;2023-07-13T02:30:52;12.30;99.90
7331;DHT22;3706;49.198;7.064;2023-07-13T02:33:20;12.20;99.90
7331;DHT22;3706;49.198;7.064;2023-07-13T02:35:47;12.20;99.90
7331;DHT22;3706;49.198;7.064;2023-07-13T02:38:13;12.30;99.90
7331;DHT22;3706;49.198;7.064;2023-07-13T02:40:40;12.60;99.90
7331;DHT22;3706;49.198;7.064;2023-07-13T02:43:07;13.00;99.90
7331;DHT22;3706;49.198;7.064;2023-07-13T02:45:34;13.40;99.90
7331;DHT22;3706;49.198;7.064;2023-07-13T02:48:02;13.70;99.90
7331;DHT22;3706;49.198;7.064;2023-07-13T02:50:29;13.80;99.90
7331;DHT22;3706;49.198;7.064;2023-07-13T02:52:56;13.70;99.90
7331;DHT22;3706;49.198;7.064;2023-07-13T02:55:23;13.50;99.90
7331;DHT22;3706;49.198;7.064;2023-07-13T02:57:50;13.30;99.90
7331;DHT22;3706;49.198;7.064;2023-07-13T03:00:18;13.10;99.90
7331;DHT22;3706;49.198;7.064;2023-07-13T03:02:44;13.00;99.90
7331;DHT22;3706;49.198;7.064;2023-07-13T03:05:13;12.80;99.90
7331;DHT22;3706;49.198;7.064;2023-07-13T03:07:40;12.70;99.90
7331;DHT22;3706;49.198;7.064;2023-07-13T03:10:08;12.70;99.90
7331;DHT22;3706;49.198;7.064;2023-07-13T03:12:35;12.80;99.90
7331;DHT22;3706;49.198;7.064;2023-07-13T03:15:03;12.80;99.90
7331;DHT22;3706;49.198;7.064;2023-07-13T03:17:30;12.70;99.90
7331;DHT22;3706;49.198;7.064;2023-07-13T03:19:57;12.80;99.90
7331;DHT22;3706;49.198;7.064;2023-07-13T03:22:25;12.80;99.90
7331;DHT22;3706;49.198;7.064;2023-07-13T03:24:52;12.60;99.90
7331;DHT22;3706;49.198;7.064;2023-07-13T03:27:19;12.40;99.90
7331;DHT22;3706;49.198;7.064;2023-07-13T03:29:46;12.20;99.90
7331;DHT22;3706;49.198;7.064;2023-07-13T03:32:13;12.30;99.90
7331;DHT22;3706;49.198;7.064;2023-07-13T03:34:39;12.50;99.90
7331;DHT22;3706;49.198;7.064;2023-07-13T03:37:06;12.60;99.90
7331;DHT22;3706;49.198;7.064;2023-07-13T03:39:35;12.70;99.90
7331;DHT22;3706;49.198;7.064;2023-07-13T03:42:01;12.70;99.90
7331;DHT22;3706;49.198;7.064;2023-07-13T03:44:29;12.70;99.90
7331;DHT22;3706;49.198;7.064;2023-07-13T03:46:56;12.60;99.90
7331;DHT22;3706;49.198;7.064;2023-07-13T03:49:23;12.60;99.90
7331;DHT22;3706;49.198;7.064;2023-07-13T03:51:50;12.50;99.90
7331;DHT22;3706;49.198;7.064;2023-07-13T03:54:16;12.50;99.90
7331;DHT22;3706;49.198;7.064;2023-07-13T03:56:45;12.30;99.90
7331;DHT22;3706;49.198;7.064;2023-07-13T03:59:12;12.20;99.90
7331;DHT22;3706;49.198;7.064;2023-07-13T04:01:39;12.10;99.90
7331;DHT22;3706;49.198;7.064;2023-07-13T04:04:06;12.20;99.90
7331;DHT22;3706;49.198;7.064;2023-07-13T04:06:33;12.20;99.90
7331;DHT22;3706;49.198;7.064;2023-07-13T04:09:02;12.30;99.90
7331;DHT22;3706;49.198;7.064;2023-07-13T04:11:31;12.40;99.90
7331;DHT22;3706;49.198;7.064;2023-07-13T04:14:00;12.40;99.90
7331;DHT22;3706;49.198;7.064;2023-07-13T04:16:28;12.30;99.90
7331;DHT22;3706;49.198;7.064;2023-07-13T04:18:55;12.30;99.90
7331;DHT22;3706;49.198;7.064;2023-07-13T04:21:25;12.20;99.90
7331;DHT22;3706;49.198;7.064;2023-07-13T04:23:52;12.20;99.90
7331;DHT22;3706;49.198;7.064;2023-07-13T04:26:19;12.20;99.90
7331;DHT22;3706;49.198;7.064;2023-07-13T04:28:48;12.20;99.90
7331;DHT22;3706;49.198;7.064;2023-07-13T04:31:17;12.40;99.90
7331;DHT22;3706;49.198;7.064;2023-07-13T04:33:44;12.60;99.90
7331;DHT22;3706;49.198;7.064;2023-07-13T04:36:11;12.90;99.90
7331;DHT22;3706;49.198;7.064;2023-07-13T04:38:38;13.20;99.90
7331;DHT22;3706;49.198;7.064;2023-07-13T04:41:06;13.30;99.90
7331;DHT22;3706;49.198;7.064;2023-07-13T04:43:33;13.40;99.90
7331;DHT22;3706;49.198;7.064;2023-07-13T04:46:04;13.50;99.90
7331;DHT22;3706;49.198;7.064;2023-07-13T04:48:32;13.60;99.90
7331;DHT22;3706;49.198;7.064;2023-07-13T04:50:59;13.80;99.90
7331;DHT22;3706;49.198;7.064;2023-07-13T04:53:28;14.10;99.90
7331;DHT22;3706;49.198;7.064;2023-07-13T04:55:55;14.60;99.90
7331;DHT22;3706;49.198;7.064;2023-07-13T04:58:24;15.10;99.90
7331;DHT22;3706;49.198;7.064;2023-07-13T05:00:51;15.70;99.90
7331;DHT22;3706;49.198;7.064;2023-07-13T05:03:18;16.40;99.90
7331;DHT22;3706;49.198;7.064;2023-07-13T05:05:56;17.10;99.90
7331;DHT22;3706;49.198;7.064;2023-07-13T05:08:23;17.80;99.90
7331;DHT22;3706;49.198;7.064;2023-07-13T05:10:50;18.60;99.90
7331;DHT22;3706;49.198;7.064;2023-07-13T05:13:18;19.20;99.90
7331;DHT22;3706;49.198;7.064;2023-07-13T05:15:47;19.90;99.90
7331;DHT22;3706;49.198;7.064;2023-07-13T05:18:14;20.40;99.90
7331;DHT22;3706;49.198;7.064;2023-07-13T05:20:41;20.90;99.90
7331;DHT22;3706;49.198;7.064;2023-07-13T05:23:09;21.40;99.90
7331;DHT22;3706;49.198;7.064;2023-07-13T05:25:36;22.00;99.90
7331;DHT22;3706;49.198;7.064;2023-07-13T05:28:03;22.70;99.90
7331;DHT22;3706;49.198;7.064;2023-07-13T05:30:30;23.20;99.90
7331;DHT22;3706;49.198;7.064;2023-07-13T05:32:57;23.60;99.90
7331;DHT22;3706;49.198;7.064;2023-07-13T05:35:23;24.00;99.90
7331;DHT22;3706;49.198;7.064;2023-07-13T05:37:50;24.30;99.70
7331;DHT22;3706;49.198;7.064;2023-07-13T05:40:19;24.70;98.30
7331;DHT22;3706;49.198;7.064;2023-07-13T05:42:45;25.10;96.80
7331;DHT22;3706;49.198;7.064;2023-07-13T05:45:12;25.70;95.40
7331;DHT22;3706;49.198;7.064;2023-07-13T05:47:39;26.10;93.70
7331;DHT22;3706;49.198;7.064;2023-07-13T05:50:07;26.70;92.50
7331;DHT22;3706;49.198;7.064;2023-07-13T05:52:34;27.20;91.00
7331;DHT22;3706;49.198;7.064;2023-07-13T05:55:01;27.80;87.90
7331;DHT22;3706;49.198;7.064;2023-07-13T05:57:30;28.40;84.60
7331;DHT22;3706;49.198;7.064;2023-07-13T05:59:57;28.70;81.70
7331;DHT22;3706;49.198;7.064;2023-07-13T06:02:24;28.70;79.80
7331;DHT22;3706;49.198;7.064;2023-07-13T06:04:51;28.70;79.20
7331;DHT22;3706;49.198;7.064;2023-07-13T06:07:18;28.90;78.50
7331;DHT22;3706;49.198;7.064;2023-07-13T06:09:45;29.10;77.30
7331;DHT22;3706;49.198;7.064;2023-07-13T06:12:11;28.80;76.10
7331;DHT22;3706;49.198;7.064;2023-07-13T06:14:40;28.00;77.10
7331;DHT22;3706;49.198;7.064;2023-07-13T06:17:07;27.20;78.70
7331;DHT22;3706;49.198;7.064;2023-07-13T06:19:35;26.60;80.70
7331;DHT22;3706;49.198;7.064;2023-07-13T06:22:02;26.00;81.90
7331;DHT22;3706;49.198;7.064;2023-07-13T06:24:29;25.30;83.30
7331;DHT22;3706;49.198;7.064;2023-07-13T06:26:56;24.80;83.90
7331;DHT22;3706;49.198;7.064;2023-07-13T06:29:23;24.20;85.70
7331;DHT22;3706;49.198;7.064;2023-07-13T06:31:51;23.70;87.00
7331;DHT22;3706;49.198;7.064;2023-07-13T06:34:18;23.60;89.50
7331;DHT22;3706;49.198;7.064;2023-07-13T06:36:45;24.30;89.20
7331;DHT22;3706;49.198;7.064;2023-07-13T06:39:12;25.40;86.40
7331;DHT22;3706;49.198;7.064;2023-07-13T06:41:39;26.50;83.10
7331;DHT22;3706;49.198;7.064;2023-07-13T06:44:06;27.70;80.00
7331;DHT22;3706;49.198;7.064;2023-07-13T06:46:33;28.70;76.30
7331;DHT22;3706;49.198;7.064;2023-07-13T06:49:01;29.60;73.20
7331;DHT22;3706;49.198;7.064;2023-07-13T06:51:28;30.60;70.10
7331;DHT22;3706;49.198;7.064;2023-07-13T06:53:55;31.60;66.70
7331;DHT22;3706;49.198;7.064;2023-07-13T06:56:22;32.30;62.70
7331;DHT22;3706;49.198;7.064;2023-07-13T06:58:49;32.00;61.20
7331;DHT22;3706;49.198;7.064;2023-07-13T07:01:16;30.90;63.00
7331;DHT22;3706;49.198;7.064;2023-07-13T07:03:42;30.10;64.00
7331;DHT22;3706;49.198;7.064;2023-07-13T07:06:15;28.90;65.70
7331;DHT22;3706;49.198;7.064;2023-07-13T07:08:42;27.80;68.30
7331;DHT22;3706;49.198;7.064;2023-07-13T07:11:12;27.20;70.10
7331;DHT22;3706;49.198;7.064;2023-07-13T07:13:39;26.80;71.10
7331;DHT22;3706;49.198;7.064;2023-07-13T07:16:06;26.20;72.30
7331;DHT22;3706;49.198;7.064;2023-07-13T07:18:34;25.70;74.30
7331;DHT22;3706;49.198;7.064;2023-07-13T07:21:01;25.30;74.70
7331;DHT22;3706;49.198;7.064;2023-07-13T07:23:29;25.00;76.20
7331;DHT22;3706;49.198;7.064;2023-07-13T07:25:56;24.70;77.30
7331;DHT22;3706;49.198;7.064;2023-07-13T07:28:23;24.60;78.00
7331;DHT22;3706;49.198;7.064;2023-07-13T07:30:53;24.60;78.10
7331;DHT22;3706;49.198;7.064;2023-07-13T07:33:20;24.70;77.70
7331;DHT22;3706;49.198;7.064;2023-07-13T07:35:47;24.60;76.00
7331;DHT22;3706;49.198;7.064;2023-07-13T07:38:14;24.40;76.50
7331;DHT22;3706;49.198;7.064;2023-07-13T07:40:43;24.40;76.70
7331;DHT22;3706;49.198;7.064;2023-07-13T07:43:12;24.70;77.50
7331;DHT22;3706;49.198;7.064;2023-07-13T07:45:39;25.10;76.20
7331;DHT22;3706;49.198;7.064;2023-07-13T07:48:07;25.30;76.80
7331;DHT22;3706;49.198;7.064;2023-07-13T07:50:35;25.40;75.10
7331;DHT22;3706;49.198;7.064;2023-07-13T07:53:02;25.30;76.20
7331;DHT22;3706;49.198;7.064;2023-07-13T07:55:33;25.40;76.00
7331;DHT22;3706;49.198;7.064;2023-07-13T07:58:02;25.40;75.90
7331;DHT22;3706;49.198;7.064;2023-07-13T08:00:28;25.60;73.40
7331;DHT22;3706;49.198;7.064;2023-07-13T08:02:57;25.70;73.30
7331;DHT22;3706;49.198;7.064;2023-07-13T08:05:24;26.10;72.80
7331;DHT22;3706;49.198;7.064;2023-07-13T08:07:51;26.50;72.40
7331;DHT22;3706;49.198;7.064;2023-07-13T08:10:19;26.80;72.00
7331;DHT22;3706;49.198;7.064;2023-07-13T08:12:46;26.90;70.90
7331;DHT22;3706;49.198;7.064;2023-07-13T08:15:16;26.90;70.00
7331;DHT22;3706;49.198;7.064;2023-07-13T08:17:43;26.80;71.30
7331;DHT22;3706;49.198;7.064;2023-07-13T08:20:10;26.80;72.50
7331;DHT22;3706;49.198;7.064;2023-07-13T08:22:37;26.90;71.30
7331;DHT22;3706;49.198;7.064;2023-07-13T08:25:04;27.20;71.60
7331;DHT22;3706;49.198;7.064;2023-07-13T08:27:32;27.60;70.20
7331;DHT22;3706;49.198;7.064;2023-07-13T08:29:59;27.90;69.20
7331;DHT22;3706;49.198;7.064;2023-07-13T08:32:27;28.00;68.90
7331;DHT22;3706;49.198;7.064;2023-07-13T08:34:54;28.20;67.90
7331;DHT22;3706;49.198;7.064;2023-07-13T08:37:21;28.50;67.40
7331;DHT22;3706;49.198;7.064;2023-07-13T08:39:48;29.10;66.30
7331;DHT22;3706;49.198;7.064;2023-07-13T08:42:26;30.00;65.00
7331;DHT22;3706;49.198;7.064;2023-07-13T08:45:03;31.10;62.90
7331;DHT22;3706;49.198;7.064;2023-07-13T08:47:38;32.40;59.00
7331;DHT22;3706;49.198;7.064;2023-07-13T08:50:11;33.40;57.20
7331;DHT22;3706;49.198;7.064;2023-07-13T08:52:41;33.80;57.50
7331;DHT22;3706;49.198;7.064;2023-07-13T08:55:13;33.80;56.50
7331;DHT22;3706;49.198;7.064;2023-07-13T08:57:41;33.70;55.80
7331;DHT22;3706;49.198;7.064;2023-07-13T09:00:10;34.00;54.10
7331;DHT22;3706;49.198;7.064;2023-07-13T09:02:46;33.70;54.60
7331;DHT22;3706;49.198;7.064;2023-07-13T09:05:17;33.30;55.40
7331;DHT22;3706;49.198;7.064;2023-07-13T09:08:00;33.10;56.30
7331;DHT22;3706;49.198;7.064;2023-07-13T09:10:31;33.00;56.10
7331;DHT22;3706;49.198;7.064;2023-07-13T09:13:15;32.70;54.80
7331;DHT22;3706;49.198;7.064;2023-07-13T09:15:46;32.50;56.30
7331;DHT22;3706;49.198;7.064;2023-07-13T09:18:20;32.90;56.00
7331;DHT22;3706;49.198;7.064;2023-07-13T09:20:53;33.50;55.70
7331;DHT22;3706;49.198;7.064;2023-07-13T09:23:22;34.10;54.10
7331;DHT22;3706;49.198;7.064;2023-07-13T09:25:53;34.50;52.70
7331;DHT22;3706;49.198;7.064;2023-07-13T09:28:23;34.90;51.70
7331;DHT22;3706;49.198;7.064;2023-07-13T09:30:59;35.30;50.80
7331;DHT22;3706;49.198;7.064;2023-07-13T09:33:28;35.80;50.10
7331;DHT22;3706;49.198;7.064;2023-07-13T09:35:56;36.40;49.20
7331;DHT22;3706;49.198;7.064;2023-07-13T09:38:25;36.30;48.60
7331;DHT22;3706;49.198;7.064;2023-07-13T09:41:08;36.40;48.40
7331;DHT22;3706;49.198;7.064;2023-07-13T09:44:00;36.00;48.10
7331;DHT22;3706;49.198;7.064;2023-07-13T09:46:27;36.00;48.00
7331;DHT22;3706;49.198;7.064;2023-07-13T09:48:56;36.50;46.90
7331;DHT22;3706;49.198;7.064;2023-07-13T09:51:23;37.00;46.50
7331;DHT22;3706;49.198;7.064;2023-07-13T09:53:50;37.40;45.80
7331;DHT22;3706;49.198;7.064;2023-07-13T09:56:21;37.80;46.00
7331;DHT22;3706;49.198;7.064;2023-07-13T09:58:48;37.60;45.30
7331;DHT22;3706;49.198;7.064;2023-07-13T10:01:15;37.40;45.00
7331;DHT22;3706;49.198;7.064;2023-07-13T10:03:58;37.10;45.30
7331;DHT22;3706;49.198;7.064;2023-07-13T10:06:25;36.90;46.00
7331;DHT22;3706;49.198;7.064;2023-07-13T10:08:56;35.90;46.00
7331;DHT22;3706;49.198;7.064;2023-07-13T10:11:27;35.20;47.60
7331;DHT22;3706;49.198;7.064;2023-07-13T10:13:56;35.40;47.40
7331;DHT22;3706;49.198;7.064;2023-07-13T10:16:28;35.10;48.10
7331;DHT22;3706;49.198;7.064;2023-07-13T10:19:03;33.90;49.00
7331;DHT22;3706;49.198;7.064;2023-07-13T10:21:36;32.70;51.00
7331;DHT22;3706;49.198;7.064;2023-07-13T10:24:12;31.40;52.70
7331;DHT22;3706;49.198;7.064;2023-07-13T10:26:55;30.60;54.00
7331;DHT22;3706;49.198;7.064;2023-07-13T10:29:25;30.30;54.70
7331;DHT22;3706;49.198;7.064;2023-07-13T10:31:54;30.20;55.70
7331;DHT22;3706;49.198;7.064;2023-07-13T10:34:24;29.90;56.30
7331;DHT22;3706;49.198;7.064;2023-07-13T10:36:52;29.60;56.30
7331;DHT22;3706;49.198;7.064;2023-07-13T10:39:21;29.20;57.60
7331;DHT22;3706;49.198;7.064;2023-07-13T10:41:53;28.80;58.30
7331;DHT22;3706;49.198;7.064;2023-07-13T10:44:23;28.10;58.40
7331;DHT22;3706;49.198;7.064;2023-07-13T10:46:53;27.70;60.00
7331;DHT22;3706;49.198;7.064;2023-07-13T10:49:21;27.20;61.20
7331;DHT22;3706;49.198;7.064;2023-07-13T10:51:50;26.90;62.10
7331;DHT22;3706;49.198;7.064;2023-07-13T10:54:20;26.80;62.50
7331;DHT22;3706;49.198;7.064;2023-07-13T10:56:52;26.90;61.90
7331;DHT22;3706;49.198;7.064;2023-07-13T10:59:24;26.90;61.80
7331;DHT22;3706;49.198;7.064;2023-07-13T11:01:56;26.80;61.90
7331;DHT22;3706;49.198;7.064;2023-07-13T11:04:25;26.90;62.50
7331;DHT22;3706;49.198;7.064;2023-07-13T11:06:57;27.30;61.90
7331;DHT22;3706;49.198;7.064;2023-07-13T11:09:34;28.40;60.90
7331;DHT22;3706;49.198;7.064;2023-07-13T11:12:07;30.20;56.80
7331;DHT22;3706;49.198;7.064;2023-07-13T11:14:36;31.90;54.70
7331;DHT22;3706;49.198;7.064;2023-07-13T11:20:35;33.30;50.90
7331;DHT22;3706;49.198;7.064;2023-07-13T11:23:27;32.70;50.50
7331;DHT22;3706;49.198;7.064;2023-07-13T11:25:55;31.40;51.80
7331;DHT22;3706;49.198;7.064;2023-07-13T11:28:25;30.70;53.00
7331;DHT22;3706;49.198;7.064;2023-07-13T11:31:14;30.80;53.10
7331;DHT22;3706;49.198;7.064;2023-07-13T11:34:06;31.90;51.50
7331;DHT22;3706;49.198;7.064;2023-07-13T11:36:42;32.90;50.90
7331;DHT22;3706;49.198;7.064;2023-07-13T11:39:19;33.00;49.60
7331;DHT22;3706;49.198;7.064;2023-07-13T11:41:53;32.30;51.00
7331;DHT22;3706;49.198;7.064;2023-07-13T11:44:24;31.70;51.40
7331;DHT22;3706;49.198;7.064;2023-07-13T11:46:53;31.00;52.00
7331;DHT22;3706;49.198;7.064;2023-07-13T11:49:22;30.10;53.40
7331;DHT22;3706;49.198;7.064;2023-07-13T11:51:51;29.20;55.20
7331;DHT22;3706;49.198;7.064;2023-07-13T11:54:26;28.70;56.40
7331;DHT22;3706;49.198;7.064;2023-07-13T11:56:56;28.80;56.50
7331;DHT22;3706;49.198;7.064;2023-07-13T11:59:26;29.10;55.70
7331;DHT22;3706;49.198;7.064;2023-07-13T12:01:54;30.00;55.10
7331;DHT22;3706;49.198;7.064;2023-07-13T12:04:24;30.40;53.60
7331;DHT22;3706;49.198;7.064;2023-07-13T12:06:56;30.50;53.00
7331;DHT22;3706;49.198;7.064;2023-07-13T12:09:27;30.30;52.80
7331;DHT22;3706;49.198;7.064;2023-07-13T12:11:57;30.20;53.80
7331;DHT22;3706;49.198;7.064;2023-07-13T12:14:24;30.10;53.80
7331;DHT22;3706;49.198;7.064;2023-07-13T12:16:52;29.80;54.80
7331;DHT22;3706;49.198;7.064;2023-07-13T12:19:21;29.50;55.10
7331;DHT22;3706;49.198;7.064;2023-07-13T12:21:50;29.00;55.50
7331;DHT22;3706;49.198;7.064;2023-07-13T12:24:19;28.50;56.10
7331;DHT22;3706;49.198;7.064;2023-07-13T12:26:53;28.00;56.10
7331;DHT22;3706;49.198;7.064;2023-07-13T12:29:20;27.60;57.30
7331;DHT22;3706;49.198;7.064;2023-07-13T12:31:49;27.60;58.20
7331;DHT22;3706;49.198;7.064;2023-07-13T12:34:20;27.90;57.90
7331;DHT22;3706;49.198;7.064;2023-07-13T12:36:49;28.00;57.60
7331;DHT22;3706;49.198;7.064;2023-07-13T12:39:19;28.20;57.70
7331;DHT22;3706;49.198;7.064;2023-07-13T12:41:47;28.20;57.40
7331;DHT22;3706;49.198;7.064;2023-07-13T12:44:18;28.00;58.20
7331;DHT22;3706;49.198;7.064;2023-07-13T12:46:58;27.80;57.80
7331;DHT22;3706;49.198;7.064;2023-07-13T12:49:29;27.60;58.50
7331;DHT22;3706;49.198;7.064;2023-07-13T12:51:59;27.80;59.10
7331;DHT22;3706;49.198;7.064;2023-07-13T12:54:27;28.00;59.30
7331;DHT22;3706;49.198;7.064;2023-07-13T12:56:55;28.00;59.20
7331;DHT22;3706;49.198;7.064;2023-07-13T12:59:30;28.10;58.90
7331;DHT22;3706;49.198;7.064;2023-07-13T13:01:59;28.30;58.80
7331;DHT22;3706;49.198;7.064;2023-07-13T13:04:26;28.40;58.60
7331;DHT22;3706;49.198;7.064;2023-07-13T13:07:01;28.50;58.40
7331;DHT22;3706;49.198;7.064;2023-07-13T13:09:29;28.40;58.40
7331;DHT22;3706;49.198;7.064;2023-07-13T13:11:56;28.40;58.60
7331;DHT22;3706;49.198;7.064;2023-07-13T13:14:23;28.40;58.00
7331;DHT22;3706;49.198;7.064;2023-07-13T13:16:51;28.50;59.20
7331;DHT22;3706;49.198;7.064;2023-07-13T13:19:22;28.80;58.20
7331;DHT22;3706;49.198;7.064;2023-07-13T13:21:50;28.70;57.40
7331;DHT22;3706;49.198;7.064;2023-07-13T13:24:20;28.60;57.60
7331;DHT22;3706;49.198;7.064;2023-07-13T13:26:48;28.30;58.40
7331;DHT22;3706;49.198;7.064;2023-07-13T13:29:17;28.40;58.80
7331;DHT22;3706;49.198;7.064;2023-07-13T13:31:44;28.70;58.30
7331;DHT22;3706;49.198;7.064;2023-07-13T13:34:14;29.10;56.80
7331;DHT22;3706;49.198;7.064;2023-07-13T13:36:41;29.20;56.60
7331;DHT22;3706;49.198;7.064;2023-07-13T13:39:19;29.20;55.00
7331;DHT22;3706;49.198;7.064;2023-07-13T13:41:47;29.20;54.90
7331;DHT22;3706;49.198;7.064;2023-07-13T13:44:16;29.30;54.80
7331;DHT22;3706;49.198;7.064;2023-07-13T13:46:45;29.30;54.60
7331;DHT22;3706;49.198;7.064;2023-07-13T13:49:16;28.90;55.50
7331;DHT22;3706;49.198;7.064;2023-07-13T13:51:44;28.60;56.80
7331;DHT22;3706;49.198;7.064;2023-07-13T13:54:13;28.20;57.50
7331;DHT22;3706;49.198;7.064;2023-07-13T13:56:42;27.80;57.80
7331;DHT22;3706;49.198;7.064;2023-07-13T13:59:09;27.40;59.00
7331;DHT22;3706;49.198;7.064;2023-07-13T14:01:37;27.20;59.30
7331;DHT22;3706;49.198;7.064;2023-07-13T14:04:06;27.10;59.70
7331;DHT22;3706;49.198;7.064;2023-07-13T14:06:35;26.90;60.30
7331;DHT22;3706;49.198;7.064;2023-07-13T14:09:02;26.80;60.50
7331;DHT22;3706;49.198;7.064;2023-07-13T14:11:30;26.90;60.70
7331;DHT22;3706;49.198;7.064;2023-07-13T14:13:59;27.30;59.90
7331;DHT22;3706;49.198;7.064;2023-07-13T14:16:30;27.60;59.70
7331;DHT22;3706;49.198;7.064;2023-07-13T14:18:58;27.70;59.50
7331;DHT22;3706;49.198;7.064;2023-07-13T14:21:28;27.40;58.90
7331;DHT22;3706;49.198;7.064;2023-07-13T14:23:56;27.10;60.40
7331;DHT22;3706;49.198;7.064;2023-07-13T14:26:25;27.00;60.20
7331;DHT22;3706;49.198;7.064;2023-07-13T14:28:55;27.20;60.00
7331;DHT22;3706;49.198;7.064;2023-07-13T14:31:24;27.50;60.00
7331;DHT22;3706;49.198;7.064;2023-07-13T14:33:51;27.60;59.00
7331;DHT22;3706;49.198;7.064;2023-07-13T14:36:27;27.80;58.70
7331;DHT22;3706;49.198;7.064;2023-07-13T14:38:56;27.90;58.00
7331;DHT22;3706;49.198;7.064;2023-07-13T14:41:24;28.20;58.60
7331;DHT22;3706;49.198;7.064;2023-07-13T14:43:51;28.40;58.00
7331;DHT22;3706;49.198;7.064;2023-07-13T14:46:29;28.30;57.50
7331;DHT22;3706;49.198;7.064;2023-07-13T14:49:01;28.10;57.70
7331;DHT22;3706;49.198;7.064;2023-07-13T14:51:29;28.00;57.40
7331;DHT22;3706;49.198;7.064;2023-07-13T14:54:00;28.10;57.30
7331;DHT22;3706;49.198;7.064;2023-07-13T14:56:27;28.30;57.30
7331;DHT22;3706;49.198;7.064;2023-07-13T14:58:54;28.20;56.90
7331;DHT22;3706;49.198;7.064;2023-07-13T15:01:21;27.70;56.80
7331;DHT22;3706;49.198;7.064;2023-07-13T15:03:52;27.10;58.40
7331;DHT22;3706;49.198;7.064;2023-07-13T15:06:19;26.70;59.10
7331;DHT22;3706;49.198;7.064;2023-07-13T15:08:46;26.30;60.00
7331;DHT22;3706;49.198;7.064;2023-07-13T15:11:15;26.30;60.70
7331;DHT22;3706;49.198;7.064;2023-07-13T15:13:43;26.30;60.20
7331;DHT22;3706;49.198;7.064;2023-07-13T15:16:16;26.60;59.80
7331;DHT22;3706;49.198;7.064;2023-07-13T15:18:44;26.90;59.30
7331;DHT22;3706;49.198;7.064;2023-07-13T15:21:14;27.10;58.10
7331;DHT22;3706;49.198;7.064;2023-07-13T15:23:43;27.10;58.10
7331;DHT22;3706;49.198;7.064;2023-07-13T15:26:12;27.10;58.40
7331;DHT22;3706;49.198;7.064;2023-07-13T15:28:41;27.20;58.50
7331;DHT22;3706;49.198;7.064;2023-07-13T15:31:21;27.10;58.50
7331;DHT22;3706;49.198;7.064;2023-07-13T15:33:49;27.10;58.60
7331;DHT22;3706;49.198;7.064;2023-07-13T15:36:18;27.00;58.80
7331;DHT22;3706;49.198;7.064;2023-07-13T15:38:45;27.10;59.40
7331;DHT22;3706;49.198;7.064;2023-07-13T15:41:17;27.10;58.90
7331;DHT22;3706;49.198;7.064;2023-07-13T15:43:47;27.00;59.30
7331;DHT22;3706;49.198;7.064;2023-07-13T15:46:14;27.10;59.70
7331;DHT22;3706;49.198;7.064;2023-07-13T15:48:41;27.00;60.00
7331;DHT22;3706;49.198;7.064;2023-07-13T15:51:14;26.90;61.00
7331;DHT22;3706;49.198;7.064;2023-07-13T15:53:44;26.60;60.60
7331;DHT22;3706;49.198;7.064;2023-07-13T15:56:18;26.50;61.10
7331;DHT22;3706;49.198;7.064;2023-07-13T15:58:47;26.30;61.50
7331;DHT22;3706;49.198;7.064;2023-07-13T16:01:14;26.20;61.50
7331;DHT22;3706;49.198;7.064;2023-07-13T16:03:41;26.20;61.80
7331;DHT22;3706;49.198;7.064;2023-07-13T16:06:15;26.20;62.40
7331;DHT22;3706;49.198;7.064;2023-07-13T16:08:43;26.30;61.10
7331;DHT22;3706;49.198;7.064;2023-07-13T16:11:19;26.30;61.50
7331;DHT22;3706;49.198;7.064;2023-07-13T16:13:48;26.30;62.10
7331;DHT22;3706;49.198;7.064;2023-07-13T16:16:21;26.30;61.30